createdAt,value
2023-05-31T00:00:43.246Z,17.18
2023-05-31T00:01:43.287Z,17.15
2023-05-31T00:02:43.239Z,17.16
2023-05-31T00:03:43.234Z,17.12
2023-05-31T00:04:43.194Z,17.11
2023-05-31T00:05:43.211Z,17.12
2023-05-31T00:06:43.168Z,17.08
2023-05-31T00:07:43.162Z,17.08
2023-05-31T00:08:43.182Z,17.07
2023-05-31T00:09:43.143Z,17.06
2023-05-31T00:10:43.125Z,17.03
2023-05-31T00:11:43.119Z,17.01
2023-05-31T00:12:43.100Z,17.00
2023-05-31T00:13:43.112Z,16.98
2023-05-31T00:14:43.086Z,16.96
2023-05-31T00:15:43.088Z,16.96
2023-05-31T00:17:07.578Z,16.93
2023-05-31T00:18:43.149Z,16.91
2023-05-31T00:19:43.036Z,16.91
2023-05-31T00:20:43.050Z,16.91
2023-05-31T00:21:43.014Z,16.88
2023-05-31T00:22:43.004Z,16.88
2023-05-31T00:23:42.995Z,16.86
2023-05-31T00:24:42.980Z,16.85
2023-05-31T00:25:42.965Z,16.85
2023-05-31T00:26:42.950Z,16.85
2023-05-31T00:27:42.960Z,16.83
2023-05-31T00:28:42.971Z,16.81
2023-05-31T00:29:42.942Z,16.81
2023-05-31T00:30:42.971Z,16.78
2023-05-31T00:31:42.903Z,16.76
2023-05-31T00:32:42.942Z,16.73
2023-05-31T00:33:42.892Z,16.71
2023-05-31T00:34:42.870Z,16.70
2023-05-31T00:35:42.910Z,16.68
2023-05-31T00:36:42.847Z,16.66
2023-05-31T00:37:42.843Z,16.64
2023-05-31T00:38:42.836Z,16.63
2023-05-31T00:39:42.822Z,16.63
2023-05-31T00:40:42.808Z,16.61
2023-05-31T00:41:42.832Z,16.58
2023-05-31T00:42:42.787Z,16.60
2023-05-31T00:43:42.824Z,16.57
2023-05-31T00:44:42.759Z,16.56
2023-05-31T00:45:42.790Z,16.53
2023-05-31T00:46:42.738Z,16.50
2023-05-31T00:47:42.887Z,16.46
2023-05-31T00:48:42.766Z,16.46
2023-05-31T00:49:42.768Z,16.46
2023-05-31T00:50:42.717Z,16.45
2023-05-31T00:51:42.695Z,16.45
2023-05-31T00:52:42.672Z,16.42
2023-05-31T00:53:42.669Z,16.41
2023-05-31T00:54:42.655Z,16.38
2023-05-31T00:55:42.668Z,16.39
2023-05-31T00:56:42.667Z,16.35
2023-05-31T00:57:42.637Z,16.34
2023-05-31T00:58:42.615Z,16.34
2023-05-31T00:59:42.608Z,16.34
2023-05-31T01:00:42.624Z,16.33
2023-05-31T01:01:42.636Z,16.34
2023-05-31T01:02:42.633Z,16.31
2023-05-31T01:03:42.602Z,16.30
2023-05-31T01:04:42.560Z,16.28
2023-05-31T01:05:42.661Z,16.28
2023-05-31T01:06:42.531Z,16.30
2023-05-31T01:07:42.526Z,16.30
2023-05-31T01:08:42.502Z,16.28
2023-05-31T01:09:42.495Z,16.28
2023-05-31T01:10:42.485Z,16.27
2023-05-31T01:11:42.502Z,16.25
2023-05-31T01:12:42.461Z,16.27
2023-05-31T01:13:42.458Z,16.24
2023-05-31T01:14:42.440Z,16.23
2023-05-31T01:15:42.427Z,16.21
2023-05-31T01:16:42.483Z,16.20
2023-05-31T01:17:42.529Z,16.15
2023-05-31T01:18:42.396Z,16.14
2023-05-31T01:19:42.386Z,16.11
2023-05-31T01:20:42.439Z,16.11
2023-05-31T01:21:42.376Z,16.09
2023-05-31T01:22:42.390Z,16.07
2023-05-31T01:23:42.350Z,16.05
2023-05-31T01:24:42.331Z,16.04
2023-05-31T01:25:42.329Z,16.02
2023-05-31T01:26:42.302Z,16.01
2023-05-31T01:27:42.324Z,16.01
2023-05-31T01:28:42.329Z,15.97
2023-05-31T01:29:42.278Z,15.96
2023-05-31T01:30:42.253Z,15.96
2023-05-31T01:31:42.327Z,15.94
2023-05-31T01:32:42.276Z,15.94
2023-05-31T01:33:42.232Z,15.92
2023-05-31T01:34:42.228Z,15.89
2023-05-31T01:35:42.208Z,15.87
2023-05-31T01:36:42.200Z,15.86
2023-05-31T01:37:42.190Z,15.84
2023-05-31T01:38:42.208Z,15.83
2023-05-31T01:39:42.166Z,15.82
2023-05-31T01:40:42.157Z,15.82
2023-05-31T01:41:42.158Z,15.80
2023-05-31T01:42:42.173Z,15.80
2023-05-31T01:43:46.389Z,15.78
2023-05-31T01:44:42.143Z,15.75
2023-05-31T01:45:42.122Z,15.74
2023-05-31T01:46:42.085Z,15.72
2023-05-31T01:47:42.201Z,15.71
2023-05-31T02:13:16.999Z,15.53
2023-05-31T02:14:17.979Z,15.50
2023-05-31T02:15:17.957Z,15.50
2023-05-31T02:16:17.956Z,15.49
2023-05-31T02:17:17.939Z,15.47
2023-05-31T02:18:17.952Z,15.44
2023-05-31T02:19:17.954Z,15.44
2023-05-31T02:20:17.925Z,15.43
2023-05-31T02:21:17.895Z,15.39
2023-05-31T02:22:17.885Z,15.38
2023-05-31T02:23:17.880Z,15.38
2023-05-31T02:24:17.868Z,15.36
2023-05-31T02:25:17.852Z,15.36
2023-05-31T02:26:17.832Z,15.36
2023-05-31T02:27:17.828Z,15.35
2023-05-31T02:28:17.842Z,15.38
2023-05-31T02:29:17.841Z,15.36
2023-05-31T02:30:17.800Z,15.35
2023-05-31T02:31:17.856Z,15.35
2023-05-31T02:32:17.770Z,15.36
2023-05-31T02:33:17.769Z,15.35
2023-05-31T02:34:17.790Z,15.32
2023-05-31T02:35:17.744Z,15.32
2023-05-31T02:36:17.726Z,15.32
2023-05-31T02:37:17.717Z,15.31
2023-05-31T02:38:17.709Z,15.31
2023-05-31T02:39:17.702Z,15.28
2023-05-31T02:40:17.697Z,15.29
2023-05-31T02:41:17.686Z,15.28
2023-05-31T02:42:17.661Z,15.28
2023-05-31T02:43:17.661Z,15.27
2023-05-31T02:44:17.639Z,15.27
2023-05-31T02:45:17.661Z,15.27
2023-05-31T02:46:17.672Z,15.25
2023-05-31T02:47:17.616Z,15.21
2023-05-31T02:48:17.603Z,15.21
2023-05-31T02:49:17.585Z,15.20
2023-05-31T02:50:17.616Z,15.20
2023-05-31T02:51:17.561Z,15.19
2023-05-31T02:52:17.567Z,15.20
2023-05-31T02:53:17.550Z,15.20
2023-05-31T02:54:17.529Z,15.19
2023-05-31T02:55:17.525Z,15.20
2023-05-31T02:56:17.537Z,15.20
2023-05-31T02:57:17.504Z,15.20
2023-05-31T02:58:17.486Z,15.17
2023-05-31T02:59:17.480Z,15.17
2023-05-31T03:00:17.473Z,15.16
2023-05-31T03:01:17.483Z,15.14
2023-05-31T03:02:17.449Z,15.13
2023-05-31T03:03:17.579Z,15.11
2023-05-31T03:04:17.434Z,15.10
2023-05-31T03:05:17.423Z,15.10
2023-05-31T03:06:17.437Z,15.09
2023-05-31T03:07:17.427Z,15.09
2023-05-31T03:08:17.381Z,15.07
2023-05-31T03:09:17.380Z,15.07
2023-05-31T03:10:17.365Z,15.02
2023-05-31T03:11:17.352Z,14.98
2023-05-31T03:12:17.372Z,14.95
2023-05-31T03:13:17.333Z,14.94
2023-05-31T03:14:17.307Z,14.92
2023-05-31T03:15:17.302Z,14.92
2023-05-31T03:16:17.350Z,14.92
2023-05-31T03:17:17.296Z,14.91
2023-05-31T03:18:17.318Z,14.89
2023-05-31T03:19:17.261Z,14.89
2023-05-31T03:20:17.311Z,14.89
2023-05-31T03:21:17.256Z,14.89
2023-05-31T03:22:17.237Z,14.89
2023-05-31T03:23:17.251Z,14.89
2023-05-31T03:24:17.234Z,14.89
2023-05-31T03:25:17.200Z,14.89
2023-05-31T03:26:17.195Z,14.89
2023-05-31T03:27:17.214Z,14.88
2023-05-31T03:28:17.168Z,14.88
2023-05-31T03:29:17.174Z,14.86
2023-05-31T03:30:17.147Z,14.84
2023-05-31T03:31:17.152Z,14.86
2023-05-31T03:32:17.156Z,14.84
2023-05-31T03:33:17.119Z,14.83
2023-05-31T03:34:17.104Z,14.83
2023-05-31T03:35:17.098Z,14.83
2023-05-31T03:36:17.080Z,14.81
2023-05-31T03:37:17.077Z,14.80
2023-05-31T03:38:17.093Z,14.81
2023-05-31T03:39:17.062Z,14.81
2023-05-31T03:40:17.048Z,14.81
2023-05-31T03:41:17.031Z,14.81
2023-05-31T03:42:17.048Z,14.81
2023-05-31T03:43:17.028Z,14.81
2023-05-31T03:44:17.002Z,14.81
2023-05-31T03:45:16.994Z,14.80
2023-05-31T03:46:17.011Z,14.81
2023-05-31T03:47:16.972Z,14.81
2023-05-31T03:48:16.982Z,14.83
2023-05-31T03:49:16.960Z,14.81
2023-05-31T03:50:16.945Z,14.83
2023-05-31T03:51:16.960Z,14.81
2023-05-31T03:52:16.915Z,14.81
2023-05-31T03:53:16.901Z,14.80
2023-05-31T03:54:16.894Z,14.78
2023-05-31T03:55:17.033Z,14.78
2023-05-31T03:56:16.861Z,14.81
2023-05-31T03:57:16.870Z,14.80
2023-05-31T03:58:16.852Z,14.80
2023-05-31T03:59:16.836Z,14.81
2023-05-31T04:00:16.826Z,14.81
2023-05-31T04:01:17.019Z,14.83
2023-05-31T04:02:16.885Z,14.83
2023-05-31T04:03:16.929Z,14.84
2023-05-31T04:04:16.964Z,14.84
2023-05-31T04:05:16.793Z,14.84
2023-05-31T04:06:16.776Z,14.86
2023-05-31T04:07:16.860Z,14.86
2023-05-31T04:08:16.733Z,14.88
2023-05-31T04:09:16.738Z,14.88
2023-05-31T04:10:16.721Z,14.88
2023-05-31T04:11:16.706Z,14.86
2023-05-31T04:12:16.695Z,14.88
2023-05-31T04:13:16.728Z,14.88
2023-05-31T04:14:16.705Z,14.91
2023-05-31T04:15:16.669Z,14.89
2023-05-31T04:16:16.703Z,14.92
2023-05-31T04:17:16.686Z,14.92
2023-05-31T04:18:16.657Z,14.94
2023-05-31T04:19:16.732Z,14.94
2023-05-31T04:20:16.617Z,14.95
2023-05-31T04:21:16.600Z,14.98
2023-05-31T04:22:16.594Z,14.96
2023-05-31T04:23:16.638Z,15.01
2023-05-31T04:24:16.556Z,15.02
2023-05-31T04:25:16.553Z,15.03
2023-05-31T04:26:16.534Z,15.06
2023-05-31T04:27:16.531Z,15.06
2023-05-31T04:28:16.612Z,15.07
2023-05-31T04:29:16.526Z,15.07
2023-05-31T04:30:16.564Z,15.09
2023-05-31T04:31:16.505Z,15.10
2023-05-31T04:32:16.516Z,15.09
2023-05-31T04:33:16.494Z,15.10
2023-05-31T04:34:16.458Z,15.11
2023-05-31T04:35:16.437Z,15.11
2023-05-31T04:36:16.475Z,15.10
2023-05-31T04:37:16.426Z,15.11
2023-05-31T04:38:16.411Z,15.16
2023-05-31T04:39:16.390Z,15.17
2023-05-31T04:40:16.438Z,15.21
2023-05-31T04:41:16.385Z,15.27
2023-05-31T04:42:16.375Z,15.29
2023-05-31T04:43:16.358Z,15.34
2023-05-31T04:44:16.373Z,15.35
2023-05-31T04:45:16.338Z,15.38
2023-05-31T04:46:16.363Z,15.39
2023-05-31T04:47:16.366Z,15.39
2023-05-31T04:48:16.296Z,15.41
2023-05-31T04:49:16.281Z,15.43
2023-05-31T04:50:16.282Z,15.43
2023-05-31T04:51:16.258Z,15.43
2023-05-31T04:52:16.267Z,15.43
2023-05-31T04:53:16.299Z,15.44
2023-05-31T04:54:16.233Z,15.46
2023-05-31T04:55:16.296Z,15.46
2023-05-31T04:56:16.211Z,15.44
2023-05-31T04:57:16.215Z,15.44
2023-05-31T04:58:16.195Z,15.44
2023-05-31T04:59:16.212Z,15.46
2023-05-31T05:00:16.176Z,15.46
2023-05-31T05:01:16.236Z,15.47
2023-05-31T05:02:16.154Z,15.49
2023-05-31T05:03:16.223Z,15.49
2023-05-31T05:04:16.131Z,15.50
2023-05-31T05:05:16.305Z,15.51
2023-05-31T05:06:16.105Z,15.51
2023-05-31T05:07:16.084Z,15.53
2023-05-31T05:08:16.090Z,15.56
2023-05-31T05:09:16.084Z,15.53
2023-05-31T05:10:16.059Z,15.54
2023-05-31T05:11:16.129Z,15.56
2023-05-31T05:12:16.050Z,15.57
2023-05-31T05:13:16.054Z,15.57
2023-05-31T05:14:16.019Z,15.60
2023-05-31T05:15:16.009Z,15.64
2023-05-31T05:16:15.993Z,15.65
2023-05-31T05:17:16.131Z,15.68
2023-05-31T05:18:16.080Z,15.69
2023-05-31T05:19:15.964Z,15.71
2023-05-31T05:20:16.025Z,15.72
2023-05-31T05:21:15.938Z,15.75
2023-05-31T05:22:15.930Z,15.75
2023-05-31T05:23:15.942Z,15.76
2023-05-31T05:24:15.907Z,15.76
2023-05-31T05:25:15.896Z,15.78
2023-05-31T05:26:15.894Z,15.80
2023-05-31T05:27:15.882Z,15.83
2023-05-31T05:28:15.939Z,15.84
2023-05-31T05:29:15.865Z,15.89
2023-05-31T05:30:15.854Z,15.89
2023-05-31T05:31:15.867Z,15.92
2023-05-31T05:32:15.816Z,15.93
2023-05-31T05:33:15.835Z,15.96
2023-05-31T05:34:15.921Z,16.00
2023-05-31T05:35:15.789Z,16.00
2023-05-31T05:36:15.824Z,16.01
2023-05-31T05:37:15.765Z,16.07
2023-05-31T05:38:15.762Z,16.07
2023-05-31T05:39:15.746Z,16.08
2023-05-31T05:40:15.771Z,16.12
2023-05-31T05:41:15.717Z,16.14
2023-05-31T05:42:15.731Z,16.15
2023-05-31T05:43:15.718Z,16.21
2023-05-31T05:44:15.699Z,16.24
2023-05-31T05:45:15.676Z,16.25
2023-05-31T05:46:15.783Z,16.27
2023-05-31T05:47:15.651Z,16.28
2023-05-31T05:48:15.649Z,16.30
2023-05-31T05:49:17.854Z,16.33
2023-05-31T05:50:15.624Z,16.33
2023-05-31T05:51:15.624Z,16.34
2023-05-31T05:52:15.807Z,16.35
2023-05-31T05:53:15.598Z,16.38
2023-05-31T05:54:15.589Z,16.41
2023-05-31T05:55:15.767Z,16.41
2023-05-31T05:56:15.564Z,16.41
2023-05-31T05:57:15.554Z,16.42
2023-05-31T05:58:15.544Z,16.43
2023-05-31T05:59:15.514Z,16.46
2023-05-31T06:00:15.545Z,16.48
2023-05-31T06:01:15.543Z,16.48
2023-05-31T06:02:15.500Z,16.50
2023-05-31T06:03:15.575Z,16.53
2023-05-31T06:04:15.481Z,16.58
2023-05-31T06:05:15.489Z,16.61
2023-05-31T06:06:15.515Z,16.66
2023-05-31T06:07:15.487Z,16.70
2023-05-31T06:08:15.436Z,16.71
2023-05-31T06:09:15.432Z,16.76
2023-05-31T06:10:15.416Z,16.79
2023-05-31T06:11:15.406Z,16.82
2023-05-31T06:12:15.400Z,16.86
2023-05-31T06:13:15.805Z,16.89
2023-05-31T06:14:15.372Z,16.93
2023-05-31T06:15:15.352Z,16.96
2023-05-31T06:16:15.430Z,16.97
2023-05-31T06:17:15.352Z,17.00
2023-05-31T06:18:15.327Z,17.04
2023-05-31T06:19:15.576Z,17.07
2023-05-31T06:20:15.445Z,17.11
2023-05-31T06:21:15.326Z,17.12
2023-05-31T06:22:15.304Z,17.15
2023-05-31T06:23:15.279Z,17.19
2023-05-31T06:24:15.311Z,17.22
2023-05-31T06:25:15.369Z,17.23
2023-05-31T06:26:15.278Z,17.26
2023-05-31T06:27:15.272Z,17.28
2023-05-31T06:28:15.234Z,17.34
2023-05-31T06:29:15.193Z,17.36
2023-05-31T06:30:15.236Z,17.37
2023-05-31T06:31:15.181Z,17.41
2023-05-31T06:32:15.175Z,17.46
2023-05-31T06:33:15.213Z,17.49
2023-05-31T06:34:15.147Z,17.51
2023-05-31T06:35:15.136Z,17.54
2023-05-31T06:36:15.134Z,17.58
2023-05-31T06:37:15.155Z,17.59
2023-05-31T06:38:15.098Z,17.62
2023-05-31T06:39:15.095Z,17.64
2023-05-31T06:40:15.092Z,17.70
2023-05-31T06:41:15.066Z,17.72
2023-05-31T06:42:15.111Z,17.77
2023-05-31T06:43:15.178Z,17.78
2023-05-31T06:44:15.048Z,17.82
2023-05-31T06:45:15.040Z,17.87
2023-05-31T06:46:15.038Z,17.90
2023-05-31T06:47:15.143Z,17.92
2023-05-31T06:48:15.047Z,17.95
2023-05-31T06:49:15.019Z,17.99
2023-05-31T06:50:14.989Z,18.03
2023-05-31T06:51:14.966Z,18.05
2023-05-31T06:52:14.944Z,18.08
2023-05-31T06:53:14.988Z,18.11
2023-05-31T06:54:14.936Z,18.12
2023-05-31T06:55:14.915Z,18.15
2023-05-31T06:56:14.923Z,18.18
2023-05-31T06:57:14.917Z,18.21
2023-05-31T06:58:14.887Z,18.25
2023-05-31T06:59:15.017Z,18.27
2023-05-31T07:00:14.866Z,18.30
2023-05-31T07:01:14.882Z,18.35
2023-05-31T07:02:15.217Z,18.37
2023-05-31T07:03:14.841Z,18.41
2023-05-31T07:04:14.830Z,18.42
2023-05-31T07:05:14.810Z,18.45
2023-05-31T07:06:14.806Z,18.47
2023-05-31T07:07:14.789Z,18.48
2023-05-31T07:08:14.817Z,18.50
2023-05-31T07:09:14.810Z,18.54
2023-05-31T07:10:14.780Z,18.55
2023-05-31T07:11:14.764Z,18.60
2023-05-31T07:12:14.761Z,18.62
2023-05-31T07:13:14.727Z,18.65
2023-05-31T07:14:14.787Z,18.67
2023-05-31T07:15:14.709Z,18.70
2023-05-31T07:16:14.732Z,18.75
2023-05-31T07:17:14.678Z,18.76
2023-05-31T07:18:14.707Z,18.78
2023-05-31T07:19:14.667Z,18.82
2023-05-31T07:20:14.749Z,18.85
2023-05-31T07:21:14.685Z,18.87
2023-05-31T07:22:14.634Z,18.91
2023-05-31T07:23:14.636Z,18.94
2023-05-31T07:24:14.631Z,18.98
2023-05-31T07:25:14.626Z,18.99
2023-05-31T07:26:14.582Z,19.00
2023-05-31T07:27:14.597Z,19.02
2023-05-31T07:28:14.571Z,19.07
2023-05-31T07:29:14.557Z,19.10
2023-05-31T07:30:14.543Z,19.13
2023-05-31T07:31:14.530Z,19.18
2023-05-31T07:32:14.568Z,19.21
2023-05-31T07:33:14.664Z,19.22
2023-05-31T07:34:14.527Z,19.22
2023-05-31T07:35:14.492Z,19.23
2023-05-31T07:36:14.482Z,19.25
2023-05-31T07:37:14.462Z,19.26
2023-05-31T07:38:14.465Z,19.31
2023-05-31T07:39:14.498Z,19.36
2023-05-31T07:40:14.447Z,19.39
2023-05-31T07:41:14.578Z,19.40
2023-05-31T07:42:14.430Z,19.43
2023-05-31T07:43:14.403Z,19.48
2023-05-31T07:44:14.411Z,19.50
2023-05-31T07:45:14.378Z,19.55
2023-05-31T07:46:14.374Z,19.58
2023-05-31T07:47:14.390Z,19.61
2023-05-31T07:48:14.363Z,19.65
2023-05-31T07:49:14.363Z,19.69
2023-05-31T07:50:14.536Z,19.73
2023-05-31T07:51:14.346Z,19.77
2023-05-31T07:52:14.314Z,19.78
2023-05-31T07:53:14.338Z,19.83
2023-05-31T07:54:14.294Z,19.84
2023-05-31T07:55:14.279Z,19.86
2023-05-31T07:56:14.258Z,19.87
2023-05-31T07:57:14.297Z,19.88
2023-05-31T07:58:14.295Z,19.94
2023-05-31T07:59:14.229Z,19.95
2023-05-31T08:00:14.229Z,19.98
2023-05-31T08:01:14.489Z,20.01
2023-05-31T08:02:14.252Z,19.99
2023-05-31T08:03:14.263Z,20.03
2023-05-31T08:04:14.305Z,20.06
2023-05-31T08:05:14.166Z,20.10
2023-05-31T08:06:14.193Z,20.11
2023-05-31T08:07:14.197Z,20.13
2023-05-31T08:08:14.136Z,20.17
2023-05-31T08:09:14.153Z,20.20
2023-05-31T08:10:14.106Z,20.20
2023-05-31T08:11:14.092Z,20.23
2023-05-31T08:12:14.095Z,20.26
2023-05-31T08:13:14.082Z,20.29
2023-05-31T08:14:14.084Z,20.32
2023-05-31T08:15:14.129Z,20.32
2023-05-31T08:16:14.578Z,20.33
2023-05-31T08:17:14.113Z,20.36
2023-05-31T08:18:14.068Z,20.39
2023-05-31T08:19:14.015Z,20.43
2023-05-31T08:20:14.030Z,20.50
2023-05-31T08:21:13.996Z,20.51
2023-05-31T08:22:13.978Z,20.54
2023-05-31T08:23:14.054Z,20.57
2023-05-31T08:24:13.962Z,20.61
2023-05-31T08:25:15.112Z,20.64
2023-05-31T08:26:13.976Z,20.66
2023-05-31T08:27:13.930Z,20.69
2023-05-31T08:28:13.915Z,20.69
2023-05-31T08:29:13.905Z,20.69
2023-05-31T08:30:13.987Z,20.67
2023-05-31T08:31:13.982Z,20.70
2023-05-31T08:32:13.884Z,20.72
2023-05-31T08:33:13.939Z,20.74
2023-05-31T08:34:13.846Z,20.77
2023-05-31T08:35:13.831Z,20.84
2023-05-31T08:36:13.853Z,20.84
2023-05-31T08:37:13.864Z,20.88
2023-05-31T08:38:13.928Z,20.91
2023-05-31T08:39:13.825Z,20.94
2023-05-31T08:40:13.833Z,20.97
2023-05-31T08:41:13.808Z,20.99
2023-05-31T08:42:13.831Z,21.01
2023-05-31T08:43:13.756Z,21.03
2023-05-31T08:44:13.759Z,21.04
2023-05-31T08:45:13.729Z,21.06
2023-05-31T08:46:13.750Z,21.06
2023-05-31T08:47:13.735Z,21.09
2023-05-31T08:48:13.880Z,21.10
2023-05-31T08:49:13.692Z,21.12
2023-05-31T08:50:13.681Z,21.14
2023-05-31T08:51:13.703Z,21.16
2023-05-31T08:52:13.658Z,21.16
2023-05-31T08:53:13.706Z,21.17
2023-05-31T08:54:13.635Z,21.21
2023-05-31T08:55:13.635Z,21.21
2023-05-31T08:56:13.621Z,21.24
2023-05-31T08:57:13.780Z,21.25
2023-05-31T08:58:13.595Z,21.25
2023-05-31T08:59:13.592Z,21.27
2023-05-31T09:00:13.573Z,21.27
2023-05-31T09:01:13.564Z,21.28
2023-05-31T09:02:13.576Z,21.29
2023-05-31T09:03:13.644Z,21.29
2023-05-31T09:04:13.526Z,21.29
2023-05-31T09:05:13.549Z,21.31
2023-05-31T09:06:13.501Z,21.31
2023-05-31T09:07:13.499Z,21.31
2023-05-31T09:08:13.489Z,21.28
2023-05-31T09:09:13.525Z,21.27
2023-05-31T09:10:13.459Z,21.24
2023-05-31T09:11:13.479Z,21.22
2023-05-31T09:12:13.488Z,21.27
2023-05-31T09:13:13.429Z,21.31
2023-05-31T09:14:13.413Z,21.24
2023-05-31T09:15:13.432Z,21.25
2023-05-31T09:16:13.493Z,21.25
2023-05-31T09:17:13.386Z,21.28
2023-05-31T09:18:13.413Z,21.34
2023-05-31T09:19:13.379Z,21.35
2023-05-31T09:20:13.447Z,21.37
2023-05-31T09:21:13.348Z,21.40
2023-05-31T09:22:13.322Z,21.44
2023-05-31T09:23:13.323Z,21.46
2023-05-31T09:24:13.364Z,21.49
2023-05-31T09:25:13.301Z,21.50
2023-05-31T09:26:13.282Z,21.53
2023-05-31T09:27:13.469Z,21.56
2023-05-31T09:28:13.258Z,21.59
2023-05-31T09:29:13.260Z,21.62
2023-05-31T09:30:13.252Z,21.68
2023-05-31T09:31:13.262Z,21.72
2023-05-31T09:32:13.223Z,21.75
2023-05-31T09:33:13.268Z,21.82
2023-05-31T09:34:13.214Z,21.86
2023-05-31T09:35:13.207Z,21.91
2023-05-31T09:36:13.163Z,21.91
2023-05-31T09:37:13.429Z,21.88
2023-05-31T09:38:13.199Z,21.90
2023-05-31T09:39:13.192Z,21.91
2023-05-31T09:40:13.129Z,21.91
2023-05-31T09:41:13.130Z,21.91
2023-05-31T09:42:13.126Z,21.91
2023-05-31T09:43:13.100Z,21.91
2023-05-31T09:44:13.098Z,21.92
2023-05-31T09:45:13.221Z,21.92
2023-05-31T09:46:13.088Z,21.92
2023-05-31T09:47:13.068Z,21.94
2023-05-31T09:48:13.096Z,21.98
2023-05-31T09:49:13.072Z,22.00
2023-05-31T09:50:13.058Z,22.00
2023-05-31T09:51:13.067Z,22.02
2023-05-31T09:52:13.035Z,22.02
2023-05-31T09:53:13.071Z,22.03
2023-05-31T09:54:13.001Z,22.05
2023-05-31T09:55:13.022Z,22.02
2023-05-31T09:56:13.143Z,22.03
2023-05-31T09:57:12.952Z,22.00
2023-05-31T09:58:12.976Z,22.02
2023-05-31T09:59:12.975Z,22.05
2023-05-31T10:00:12.970Z,22.07
2023-05-31T10:01:12.993Z,22.10
2023-05-31T10:02:13.064Z,22.17
2023-05-31T10:03:13.009Z,22.21
2023-05-31T10:04:12.896Z,22.25
2023-05-31T10:05:12.883Z,22.28
2023-05-31T10:06:12.858Z,22.30
2023-05-31T10:07:12.845Z,22.35
2023-05-31T10:08:12.891Z,22.31
2023-05-31T10:09:12.847Z,22.27
2023-05-31T10:10:12.817Z,22.28
2023-05-31T10:11:12.809Z,22.25
2023-05-31T10:12:12.798Z,22.22
2023-05-31T10:13:12.823Z,22.25
2023-05-31T10:14:12.809Z,22.24
2023-05-31T10:15:12.766Z,22.25
2023-05-31T10:16:12.785Z,22.25
2023-05-31T10:17:12.760Z,22.28
2023-05-31T10:18:13.744Z,22.31
2023-05-31T10:19:12.730Z,22.36
2023-05-31T10:20:12.872Z,22.37
2023-05-31T10:21:12.713Z,22.40
2023-05-31T10:22:12.707Z,22.43
2023-05-31T10:23:12.750Z,22.47
2023-05-31T10:24:12.672Z,22.49
2023-05-31T10:25:12.672Z,22.49
2023-05-31T10:26:12.722Z,22.45
2023-05-31T10:27:12.653Z,22.40
2023-05-31T10:28:12.621Z,22.40
2023-05-31T10:29:12.616Z,22.39
2023-05-31T10:30:12.627Z,22.40
2023-05-31T10:31:12.615Z,22.40
2023-05-31T10:32:12.628Z,22.45
2023-05-31T10:33:12.598Z,22.51
2023-05-31T10:34:12.568Z,22.57
2023-05-31T10:35:12.654Z,22.58
2023-05-31T10:36:12.545Z,22.62
2023-05-31T10:37:12.626Z,22.62
2023-05-31T10:38:12.511Z,22.64
2023-05-31T10:39:12.514Z,22.61
2023-05-31T10:40:12.552Z,22.67
2023-05-31T10:41:12.509Z,22.68
2023-05-31T10:42:12.478Z,22.76
2023-05-31T10:43:12.620Z,22.82
2023-05-31T10:44:12.446Z,22.86
2023-05-31T10:45:12.490Z,22.92
2023-05-31T10:46:12.487Z,22.95
2023-05-31T10:47:12.531Z,22.97
2023-05-31T10:48:12.416Z,23.01
2023-05-31T10:49:12.410Z,23.07
2023-05-31T10:50:12.382Z,23.13
2023-05-31T10:51:12.631Z,23.17
2023-05-31T10:52:12.359Z,23.23
2023-05-31T10:53:12.373Z,23.23
2023-05-31T10:54:12.341Z,23.28
2023-05-31T10:55:12.334Z,23.33
2023-05-31T10:56:12.370Z,23.35
2023-05-31T10:57:12.328Z,23.40
2023-05-31T10:58:12.300Z,23.43
2023-05-31T10:59:12.293Z,23.48
2023-05-31T11:00:12.290Z,23.51
2023-05-31T11:01:12.351Z,23.57
2023-05-31T11:02:12.308Z,23.61
2023-05-31T11:03:12.348Z,23.65
2023-05-31T11:04:12.356Z,23.70
2023-05-31T11:05:12.227Z,23.78
2023-05-31T11:06:12.301Z,23.83
2023-05-31T11:07:12.207Z,23.85
2023-05-31T11:08:12.200Z,23.93
2023-05-31T11:09:12.185Z,24.00
2023-05-31T11:10:12.173Z,24.06
2023-05-31T11:11:12.163Z,24.15
2023-05-31T11:12:12.188Z,24.22
2023-05-31T11:13:12.152Z,24.25
2023-05-31T11:14:12.132Z,24.30
2023-05-31T11:15:12.180Z,24.28
2023-05-31T11:16:12.119Z,24.27
2023-05-31T11:17:12.112Z,24.24
2023-05-31T11:18:12.093Z,24.20
2023-05-31T11:19:12.085Z,24.15
2023-05-31T11:20:12.102Z,24.10
2023-05-31T11:21:12.109Z,24.12
2023-05-31T11:22:12.048Z,24.13
2023-05-31T11:23:12.053Z,24.25
2023-05-31T11:24:12.035Z,24.34
2023-05-31T11:25:12.013Z,24.45
2023-05-31T11:26:11.999Z,24.57
2023-05-31T11:27:12.041Z,24.67
2023-05-31T11:28:11.990Z,24.77
2023-05-31T11:29:11.976Z,24.77
2023-05-31T11:30:11.965Z,24.81
2023-05-31T11:31:11.954Z,24.81
2023-05-31T11:32:12.030Z,24.80
2023-05-31T11:33:12.127Z,24.76
2023-05-31T11:34:11.916Z,24.71
2023-05-31T11:35:11.953Z,24.73
2023-05-31T11:36:11.884Z,24.78
2023-05-31T11:37:11.882Z,24.85
2023-05-31T11:38:11.862Z,24.96
2023-05-31T11:39:11.883Z,25.06
2023-05-31T11:40:11.887Z,25.15
2023-05-31T11:41:11.905Z,25.15
2023-05-31T11:42:11.831Z,25.27
2023-05-31T11:43:11.822Z,25.40
2023-05-31T11:44:11.824Z,25.57
2023-05-31T11:45:11.913Z,25.64
2023-05-31T11:46:11.798Z,25.64
2023-05-31T11:47:11.868Z,25.67
2023-05-31T11:48:11.767Z,25.76
2023-05-31T11:49:11.764Z,25.85
2023-05-31T11:50:11.807Z,25.97
2023-05-31T11:51:11.771Z,26.09
2023-05-31T11:52:11.745Z,26.23
2023-05-31T11:53:11.717Z,26.39
2023-05-31T11:54:11.717Z,26.51
2023-05-31T11:55:12.924Z,26.63
2023-05-31T11:56:11.683Z,26.73
2023-05-31T11:57:11.684Z,26.82
2023-05-31T11:58:11.671Z,26.89
2023-05-31T11:59:11.703Z,26.95
2023-05-31T12:00:11.673Z,27.02
2023-05-31T12:01:12.323Z,27.04
2023-05-31T12:02:11.787Z,27.03
2023-05-31T12:03:11.704Z,26.94
2023-05-31T12:04:11.643Z,26.85
2023-05-31T12:05:11.645Z,26.88
2023-05-31T12:06:11.574Z,26.91
2023-05-31T12:07:11.639Z,26.99
2023-05-31T12:08:11.564Z,27.06
2023-05-31T12:09:11.559Z,27.09
2023-05-31T12:10:11.616Z,27.07
2023-05-31T12:11:11.582Z,27.00
2023-05-31T12:12:11.527Z,26.95
2023-05-31T12:13:11.511Z,26.85
2023-05-31T12:14:11.497Z,26.88
2023-05-31T12:15:11.492Z,26.91
2023-05-31T12:16:11.539Z,27.04
2023-05-31T12:17:11.562Z,27.22
2023-05-31T12:18:11.458Z,27.39
2023-05-31T12:19:11.439Z,27.54
2023-05-31T12:20:11.532Z,27.62
2023-05-31T12:21:11.442Z,27.74
2023-05-31T12:22:11.420Z,27.81
2023-05-31T12:23:11.436Z,27.90
2023-05-31T12:24:11.394Z,28.04
2023-05-31T12:25:11.384Z,28.14
2023-05-31T12:26:11.369Z,28.17
2023-05-31T12:27:11.364Z,28.15
2023-05-31T12:28:11.355Z,28.18
2023-05-31T12:29:11.419Z,28.31
2023-05-31T12:30:11.351Z,28.56
2023-05-31T12:31:11.415Z,28.80
2023-05-31T12:32:11.301Z,29.05
2023-05-31T12:33:11.362Z,29.23
2023-05-31T12:34:11.304Z,29.45
2023-05-31T12:35:13.484Z,29.61
2023-05-31T12:36:11.283Z,29.74
2023-05-31T12:37:11.269Z,29.95
2023-05-31T12:38:11.289Z,30.13
2023-05-31T12:39:11.335Z,30.23
2023-05-31T12:40:11.364Z,30.37
2023-05-31T12:41:11.220Z,30.57
2023-05-31T12:42:11.213Z,30.61
2023-05-31T12:43:11.202Z,30.80
2023-05-31T12:44:11.361Z,30.94
2023-05-31T12:45:11.182Z,30.86
2023-05-31T12:46:11.226Z,30.94
2023-05-31T12:47:11.230Z,31.04
2023-05-31T12:48:11.238Z,31.13
2023-05-31T12:49:11.145Z,31.29
2023-05-31T12:50:11.197Z,31.47
2023-05-31T12:51:11.149Z,31.58
2023-05-31T12:52:11.115Z,31.66
2023-05-31T12:53:11.137Z,31.85
2023-05-31T12:54:11.087Z,31.92
2023-05-31T12:55:11.070Z,31.96
2023-05-31T12:56:12.604Z,32.14
2023-05-31T12:57:11.063Z,32.32
2023-05-31T12:58:11.053Z,32.43
2023-05-31T12:59:11.138Z,32.55
2023-05-31T13:00:11.342Z,32.41
2023-05-31T13:01:11.049Z,32.41
2023-05-31T13:02:11.263Z,32.44
2023-05-31T13:03:11.096Z,32.62
2023-05-31T13:04:10.987Z,32.78
2023-05-31T13:05:10.971Z,32.89
2023-05-31T13:06:11.021Z,32.89
2023-05-31T13:07:10.951Z,32.97
2023-05-31T13:08:11.025Z,33.07
2023-05-31T13:09:10.935Z,33.19
2023-05-31T13:10:12.626Z,33.21
2023-05-31T13:11:10.955Z,32.69
2023-05-31T13:12:10.916Z,32.60
2023-05-31T13:13:10.896Z,32.72
2023-05-31T13:14:10.898Z,32.87
2023-05-31T13:15:10.941Z,33.06
2023-05-31T13:16:10.996Z,33.26
2023-05-31T13:17:10.919Z,33.47
2023-05-31T13:18:10.867Z,33.60